sensor_id;sensor_type;location;lat;lon;timestamp;temperature;humidity
17992;DHT22;9121;50.926;5.340;2024-01-15T00:01:47;2.50;99.90
17992;DHT22;9121;50.926;5.340;2024-01-15T00:04:14;2.40;99.90
17992;DHT22;9121;50.926;5.340;2024-01-15T00:06:41;2.40;99.90
17992;DHT22;9121;50.926;5.340;2024-01-15T00:09:08;2.40;99.90
17992;DHT22;9121;50.926;5.340;2024-01-15T00:11:35;2.40;99.90
17992;DHT22;9121;50.926;5.340;2024-01-15T00:14:02;2.40;99.90
17992;DHT22;9121;50.926;5.340;2024-01-15T00:16:31;2.50;99.90
17992;DHT22;9121;50.926;5.340;2024-01-15T00:18:58;2.40;99.90
17992;DHT22;9121;50.926;5.340;2024-01-15T00:21:25;2.50;99.90
17992;DHT22;9121;50.926;5.340;2024-01-15T00:23:52;2.50;99.90
17992;DHT22;9121;50.926;5.340;2024-01-15T00:26:19;2.40;99.90
17992;DHT22;9121;50.926;5.340;2024-01-15T00:28:46;2.40;99.90
17992;DHT22;9121;50.926;5.340;2024-01-15T00:31:16;2.50;99.90
17992;DHT22;9121;50.926;5.340;2024-01-15T00:33:44;2.50;99.90
17992;DHT22;9121;50.926;5.340;2024-01-15T00:36:11;2.40;99.90
17992;DHT22;9121;50.926;5.340;2024-01-15T00:38:38;2.40;99.90
17992;DHT22;9121;50.926;5.340;2024-01-15T00:41:05;2.30;99.90
17992;DHT22;9121;50.926;5.340;2024-01-15T00:43:32;2.20;99.90
17992;DHT22;9121;50.926;5.340;2024-01-15T00:46:02;2.30;99.90
17992;DHT22;9121;50.926;5.340;2024-01-15T00:48:29;2.20;99.90
17992;DHT22;9121;50.926;5.340;2024-01-15T00:50:57;2.20;99.90
17992;DHT22;9121;50.926;5.340;2024-01-15T00:53:26;2.20;99.90
17992;DHT22;9121;50.926;5.340;2024-01-15T00:55:53;2.20;51.70
17992;DHT22;9121;50.926;5.340;2024-01-15T00:58:19;2.10;60.80
17992;DHT22;9121;50.926;5.340;2024-01-15T01:00:46;2.20;72.70
17992;DHT22;9121;50.926;5.340;2024-01-15T01:03:13;2.20;71.00
17992;DHT22;9121;50.926;5.340;2024-01-15T01:05:40;2.10;99.90
17992;DHT22;9121;50.926;5.340;2024-01-15T01:08:09;2.10;85.80
17992;DHT22;9121;50.926;5.340;2024-01-15T01:10:35;2.10;93.00
17992;DHT22;9121;50.926;5.340;2024-01-15T01:13:03;2.00;99.90
17992;DHT22;9121;50.926;5.340;2024-01-15T01:15:30;2.00;99.90
17992;DHT22;9121;50.926;5.340;2024-01-15T01:17:56;2.00;99.90
17992;DHT22;9121;50.926;5.340;2024-01-15T01:20:23;2.00;99.90
17992;DHT22;9121;50.926;5.340;2024-01-15T01:22:50;2.00;99.90
17992;DHT22;9121;50.926;5.340;2024-01-15T01:25:19;2.10;99.90
17992;DHT22;9121;50.926;5.340;2024-01-15T01:27:45;2.10;99.90
17992;DHT22;9121;50.926;5.340;2024-01-15T01:30:13;2.20;99.90
17992;DHT22;9121;50.926;5.340;2024-01-15T01:32:40;2.20;99.90
17992;DHT22;9121;50.926;5.340;2024-01-15T01:35:06;2.10;90.00
17992;DHT22;9121;50.926;5.340;2024-01-15T01:37:34;2.10;90.10
17992;DHT22;9121;50.926;5.340;2024-01-15T01:40:01;2.20;99.90
17992;DHT22;9121;50.926;5.340;2024-01-15T01:42:29;2.20;99.90
17992;DHT22;9121;50.926;5.340;2024-01-15T01:44:56;2.20;99.90
17992;DHT22;9121;50.926;5.340;2024-01-15T01:47:23;2.20;99.90
17992;DHT22;9121;50.926;5.340;2024-01-15T01:49:52;2.30;99.90
17992;DHT22;9121;50.926;5.340;2024-01-15T01:52:19;2.30;99.90
17992;DHT22;9121;50.926;5.340;2024-01-15T01:54:46;2.30;99.90
17992;DHT22;9121;50.926;5.340;2024-01-15T01:57:13;2.40;99.90
17992;DHT22;9121;50.926;5.340;2024-01-15T01:59:43;2.40;99.90
17992;DHT22;9121;50.926;5.340;2024-01-15T02:02:11;2.40;99.90
17992;DHT22;9121;50.926;5.340;2024-01-15T02:04:39;2.40;99.90
17992;DHT22;9121;50.926;5.340;2024-01-15T02:07:06;2.40;99.90
17992;DHT22;9121;50.926;5.340;2024-01-15T02:09:33;2.30;99.90
17992;DHT22;9121;50.926;5.340;2024-01-15T02:12:00;2.40;99.90
17992;DHT22;9121;50.926;5.340;2024-01-15T02:14:28;2.40;99.90
17992;DHT22;9121;50.926;5.340;2024-01-15T02:16:56;2.40;99.90
17992;DHT22;9121;50.926;5.340;2024-01-15T02:19:23;2.40;99.90
17992;DHT22;9121;50.926;5.340;2024-01-15T02:21:50;2.50;99.90
17992;DHT22;9121;50.926;5.340;2024-01-15T02:24:18;2.60;99.90
17992;DHT22;9121;50.926;5.340;2024-01-15T02:26:45;2.60;99.90
17992;DHT22;9121;50.926;5.340;2024-01-15T02:29:12;2.50;99.90
17992;DHT22;9121;50.926;5.340;2024-01-15T02:31:40;2.40;99.90
17992;DHT22;9121;50.926;5.340;2024-01-15T02:34:07;2.40;99.90
17992;DHT22;9121;50.926;5.340;2024-01-15T02:36:34;2.50;99.90
17992;DHT22;9121;50.926;5.340;2024-01-15T02:39:01;2.60;99.90
17992;DHT22;9121;50.926;5.340;2024-01-15T02:41:30;2.60;99.90
17992;DHT22;9121;50.926;5.340;2024-01-15T02:43:57;2.50;99.90
17992;DHT22;9121;50.926;5.340;2024-01-15T02:46:24;2.40;99.90
17992;DHT22;9121;50.926;5.340;2024-01-15T02:48:50;2.40;99.90
17992;DHT22;9121;50.926;5.340;2024-01-15T02:51:17;2.40;99.90
17992;DHT22;9121;50.926;5.340;2024-01-15T02:53:45;2.40;99.90
17992;DHT22;9121;50.926;5.340;2024-01-15T02:56:11;2.40;99.90
17992;DHT22;9121;50.926;5.340;2024-01-15T02:58:40;2.40;99.90
17992;DHT22;9121;50.926;5.340;2024-01-15T03:01:07;2.40;99.90
17992;DHT22;9121;50.926;5.340;2024-01-15T03:03:34;2.40;99.90
17992;DHT22;9121;50.926;5.340;2024-01-15T03:06:01;2.50;99.90
17992;DHT22;9121;50.926;5.340;2024-01-15T03:08:28;2.50;99.90
17992;DHT22;9121;50.926;5.340;2024-01-15T03:10:55;2.50;99.90
17992;DHT22;9121;50.926;5.340;2024-01-15T03:13:22;2.50;99.90
17992;DHT22;9121;50.926;5.340;2024-01-15T03:15:51;2.50;99.90
17992;DHT22;9121;50.926;5.340;2024-01-15T03:18:17;2.50;99.90
17992;DHT22;9121;50.926;5.340;2024-01-15T03:20:44;2.60;99.90
17992;DHT22;9121;50.926;5.340;2024-01-15T03:23:11;2.60;99.90
17992;DHT22;9121;50.926;5.340;2024-01-15T03:25:38;2.60;99.90
17992;DHT22;9121;50.926;5.340;2024-01-15T03:28:05;2.60;99.90
17992;DHT22;9121;50.926;5.340;2024-01-15T03:30:32;2.50;99.90
17992;DHT22;9121;50.926;5.340;2024-01-15T03:33:00;2.60;99.90
17992;DHT22;9121;50.926;5.340;2024-01-15T03:35:27;2.60;99.90
17992;DHT22;9121;50.926;5.340;2024-01-15T03:37:56;2.60;99.90
17992;DHT22;9121;50.926;5.340;2024-01-15T03:40:23;2.60;99.90
17992;DHT22;9121;50.926;5.340;2024-01-15T03:42:50;2.60;99.90
17992;DHT22;9121;50.926;5.340;2024-01-15T03:45:17;2.60;99.90
17992;DHT22;9121;50.926;5.340;2024-01-15T03:47:44;2.70;99.90
17992;DHT22;9121;50.926;5.340;2024-01-15T03:50:13;2.60;99.90
17992;DHT22;9121;50.926;5.340;2024-01-15T03:52:40;2.70;99.90
17992;DHT22;9121;50.926;5.340;2024-01-15T03:55:07;2.70;99.90
17992;DHT22;9121;50.926;5.340;2024-01-15T03:57:34;2.70;99.90
17992;DHT22;9121;50.926;5.340;2024-01-15T04:00:01;2.60;99.90
17992;DHT22;9121;50.926;5.340;2024-01-15T04:02:29;2.60;99.90
17992;DHT22;9121;50.926;5.340;2024-01-15T04:04:56;2.60;99.90
17992;DHT22;9121;50.926;5.340;2024-01-15T04:07:24;2.50;99.90
17992;DHT22;9121;50.926;5.340;2024-01-15T04:09:52;2.50;99.90
17992;DHT22;9121;50.926;5.340;2024-01-15T04:12:19;2.50;99.90
17992;DHT22;9121;50.926;5.340;2024-01-15T04:14:46;2.50;99.90
17992;DHT22;9121;50.926;5.340;2024-01-15T04:17:13;2.50;99.90
17992;DHT22;9121;50.926;5.340;2024-01-15T04:19:40;2.50;99.90
17992;DHT22;9121;50.926;5.340;2024-01-15T04:22:09;2.50;99.90
17992;DHT22;9121;50.926;5.340;2024-01-15T04:24:37;2.50;99.90
17992;DHT22;9121;50.926;5.340;2024-01-15T04:27:05;2.40;99.90
17992;DHT22;9121;50.926;5.340;2024-01-15T04:29:32;2.40;99.90
17992;DHT22;9121;50.926;5.340;2024-01-15T04:31:59;2.40;99.90
17992;DHT22;9121;50.926;5.340;2024-01-15T04:34:25;2.40;99.90
17992;DHT22;9121;50.926;5.340;2024-01-15T04:36:52;2.50;99.90
17992;DHT22;9121;50.926;5.340;2024-01-15T04:39:19;2.50;99.90
17992;DHT22;9121;50.926;5.340;2024-01-15T04:41:48;2.40;99.90
17992;DHT22;9121;50.926;5.340;2024-01-15T04:44:14;2.50;99.90
17992;DHT22;9121;50.926;5.340;2024-01-15T04:46:41;2.50;99.90
17992;DHT22;9121;50.926;5.340;2024-01-15T04:49:10;2.50;99.90
17992;DHT22;9121;50.926;5.340;2024-01-15T04:51:37;2.50;99.90
17992;DHT22;9121;50.926;5.340;2024-01-15T04:54:04;2.50;99.90
17992;DHT22;9121;50.926;5.340;2024-01-15T04:56:31;2.40;99.90
17992;DHT22;9121;50.926;5.340;2024-01-15T04:58:59;2.40;99.90
17992;DHT22;9121;50.926;5.340;2024-01-15T05:01:30;2.50;99.90
17992;DHT22;9121;50.926;5.340;2024-01-15T05:03:57;2.40;99.90
17992;DHT22;9121;50.926;5.340;2024-01-15T05:06:24;2.40;99.90
17992;DHT22;9121;50.926;5.340;2024-01-15T05:08:51;2.50;99.90
17992;DHT22;9121;50.926;5.340;2024-01-15T05:11:18;2.50;99.90
17992;DHT22;9121;50.926;5.340;2024-01-15T05:13:45;2.50;99.90
17992;DHT22;9121;50.926;5.340;2024-01-15T05:16:13;2.50;99.90
17992;DHT22;9121;50.926;5.340;2024-01-15T05:18:40;2.50;99.90
17992;DHT22;9121;50.926;5.340;2024-01-15T05:21:08;2.40;99.90
17992;DHT22;9121;50.926;5.340;2024-01-15T05:23:35;2.30;99.90
17992;DHT22;9121;50.926;5.340;2024-01-15T05:26:03;2.40;99.90
17992;DHT22;9121;50.926;5.340;2024-01-15T05:28:30;2.40;99.90
17992;DHT22;9121;50.926;5.340;2024-01-15T05:30:57;2.40;99.90
17992;DHT22;9121;50.926;5.340;2024-01-15T05:33:25;2.40;99.90
17992;DHT22;9121;50.926;5.340;2024-01-15T05:35:52;2.20;99.90
17992;DHT22;9121;50.926;5.340;2024-01-15T05:38:19;2.20;99.90
17992;DHT22;9121;50.926;5.340;2024-01-15T05:40:46;2.20;99.90
17992;DHT22;9121;50.926;5.340;2024-01-15T05:43:13;2.20;99.90
17992;DHT22;9121;50.926;5.340;2024-01-15T05:45:43;2.10;99.90
17992;DHT22;9121;50.926;5.340;2024-01-15T05:48:10;2.10;99.90
17992;DHT22;9121;50.926;5.340;2024-01-15T05:50:38;2.20;99.90
17992;DHT22;9121;50.926;5.340;2024-01-15T05:53:05;2.20;99.90
17992;DHT22;9121;50.926;5.340;2024-01-15T05:55:32;2.20;99.90
17992;DHT22;9121;50.926;5.340;2024-01-15T05:57:59;2.10;99.90
17992;DHT22;9121;50.926;5.340;2024-01-15T06:00:26;2.10;99.90
17992;DHT22;9121;50.926;5.340;2024-01-15T06:02:53;2.10;99.90
17992;DHT22;9121;50.926;5.340;2024-01-15T06:05:20;2.10;99.90
17992;DHT22;9121;50.926;5.340;2024-01-15T06:07:48;2.00;99.90
17992;DHT22;9121;50.926;5.340;2024-01-15T06:10:15;2.00;99.90
17992;DHT22;9121;50.926;5.340;2024-01-15T06:12:43;2.00;99.90
17992;DHT22;9121;50.926;5.340;2024-01-15T06:15:11;2.00;99.90
17992;DHT22;9121;50.926;5.340;2024-01-15T06:17:38;2.00;99.90
17992;DHT22;9121;50.926;5.340;2024-01-15T06:20:06;2.10;99.90
17992;DHT22;9121;50.926;5.340;2024-01-15T06:22:36;2.10;99.90
17992;DHT22;9121;50.926;5.340;2024-01-15T06:25:07;2.10;99.90
17992;DHT22;9121;50.926;5.340;2024-01-15T06:27:34;2.10;99.90
17992;DHT22;9121;50.926;5.340;2024-01-15T06:30:01;2.00;99.90
17992;DHT22;9121;50.926;5.340;2024-01-15T06:32:28;1.90;99.90
17992;DHT22;9121;50.926;5.340;2024-01-15T06:34:54;1.90;99.90
17992;DHT22;9121;50.926;5.340;2024-01-15T06:37:21;1.90;99.90
17992;DHT22;9121;50.926;5.340;2024-01-15T06:39:48;1.80;99.90
17992;DHT22;9121;50.926;5.340;2024-01-15T06:42:17;1.80;99.90
17992;DHT22;9121;50.926;5.340;2024-01-15T06:44:43;1.90;99.90
17992;DHT22;9121;50.926;5.340;2024-01-15T06:47:10;1.90;99.90
17992;DHT22;9121;50.926;5.340;2024-01-15T06:49:37;1.90;99.90
17992;DHT22;9121;50.926;5.340;2024-01-15T06:52:05;1.90;99.90
17992;DHT22;9121;50.926;5.340;2024-01-15T06:54:32;1.90;99.90
17992;DHT22;9121;50.926;5.340;2024-01-15T06:56:59;1.90;99.90
17992;DHT22;9121;50.926;5.340;2024-01-15T06:59:27;1.90;99.90
17992;DHT22;9121;50.926;5.340;2024-01-15T07:01:54;2.00;99.90
17992;DHT22;9121;50.926;5.340;2024-01-15T07:04:21;2.10;99.90
17992;DHT22;9121;50.926;5.340;2024-01-15T07:06:48;2.10;99.90
17992;DHT22;9121;50.926;5.340;2024-01-15T07:09:15;2.10;99.90
17992;DHT22;9121;50.926;5.340;2024-01-15T07:11:44;2.20;99.90
17992;DHT22;9121;50.926;5.340;2024-01-15T07:14:12;2.20;99.90
17992;DHT22;9121;50.926;5.340;2024-01-15T07:16:41;2.20;99.90
17992;DHT22;9121;50.926;5.340;2024-01-15T07:19:07;2.20;99.90
17992;DHT22;9121;50.926;5.340;2024-01-15T07:21:34;2.20;99.90
17992;DHT22;9121;50.926;5.340;2024-01-15T07:24:01;2.20;99.90
17992;DHT22;9121;50.926;5.340;2024-01-15T07:26:30;2.30;99.90
17992;DHT22;9121;50.926;5.340;2024-01-15T07:28:57;2.30;99.90
17992;DHT22;9121;50.926;5.340;2024-01-15T07:31:23;2.30;99.90
17992;DHT22;9121;50.926;5.340;2024-01-15T07:33:52;2.30;99.90
17992;DHT22;9121;50.926;5.340;2024-01-15T07:36:19;2.40;99.90
17992;DHT22;9121;50.926;5.340;2024-01-15T07:38:46;2.30;99.90
17992;DHT22;9121;50.926;5.340;2024-01-15T07:41:13;2.30;99.90
17992;DHT22;9121;50.926;5.340;2024-01-15T07:43:40;2.30;99.90
17992;DHT22;9121;50.926;5.340;2024-01-15T07:46:07;2.30;99.90
17992;DHT22;9121;50.926;5.340;2024-01-15T07:48:34;2.40;99.90
17992;DHT22;9121;50.926;5.340;2024-01-15T07:51:03;2.40;99.90
17992;DHT22;9121;50.926;5.340;2024-01-15T07:53:30;2.50;99.90
17992;DHT22;9121;50.926;5.340;2024-01-15T07:55:57;2.50;99.90
17992;DHT22;9121;50.926;5.340;2024-01-15T07:58:24;2.50;99.90
17992;DHT22;9121;50.926;5.340;2024-01-15T08:00:51;2.60;99.90
17992;DHT22;9121;50.926;5.340;2024-01-15T08:03:18;2.60;99.90
17992;DHT22;9121;50.926;5.340;2024-01-15T08:05:45;2.60;99.90
17992;DHT22;9121;50.926;5.340;2024-01-15T08:08:13;2.60;99.90
17992;DHT22;9121;50.926;5.340;2024-01-15T08:10:41;2.60;99.90
17992;DHT22;9121;50.926;5.340;2024-01-15T08:13:08;2.60;99.90
17992;DHT22;9121;50.926;5.340;2024-01-15T08:15:35;2.60;99.90
17992;DHT22;9121;50.926;5.340;2024-01-15T08:18:02;2.60;99.90
17992;DHT22;9121;50.926;5.340;2024-01-15T08:20:29;2.60;99.90
17992;DHT22;9121;50.926;5.340;2024-01-15T08:22:56;2.60;99.90
17992;DHT22;9121;50.926;5.340;2024-01-15T08:25:24;2.60;99.90
17992;DHT22;9121;50.926;5.340;2024-01-15T08:27:51;2.70;99.90
17992;DHT22;9121;50.926;5.340;2024-01-15T08:30:18;2.60;99.90
17992;DHT22;9121;50.926;5.340;2024-01-15T08:32:46;2.70;99.90
17992;DHT22;9121;50.926;5.340;2024-01-15T08:35:12;2.70;99.90
17992;DHT22;9121;50.926;5.340;2024-01-15T08:37:39;2.70;99.90
17992;DHT22;9121;50.926;5.340;2024-01-15T08:40:07;2.70;99.90
17992;DHT22;9121;50.926;5.340;2024-01-15T08:42:35;2.70;99.90
17992;DHT22;9121;50.926;5.340;2024-01-15T08:45:03;2.80;99.90
17992;DHT22;9121;50.926;5.340;2024-01-15T08:47:30;2.80;99.90
17992;DHT22;9121;50.926;5.340;2024-01-15T08:49:57;2.90;99.90
17992;DHT22;9121;50.926;5.340;2024-01-15T08:52:24;2.90;99.90
17992;DHT22;9121;50.926;5.340;2024-01-15T08:54:51;2.80;99.90
17992;DHT22;9121;50.926;5.340;2024-01-15T08:57:18;2.70;99.90
17992;DHT22;9121;50.926;5.340;2024-01-15T08:59:47;2.70;99.90
17992;DHT22;9121;50.926;5.340;2024-01-15T09:02:14;2.70;99.90
17992;DHT22;9121;50.926;5.340;2024-01-15T09:04:41;2.70;99.90
17992;DHT22;9121;50.926;5.340;2024-01-15T09:07:08;2.70;99.90
17992;DHT22;9121;50.926;5.340;2024-01-15T09:09:35;2.70;99.90
17992;DHT22;9121;50.926;5.340;2024-01-15T09:12:02;2.60;99.90
17992;DHT22;9121;50.926;5.340;2024-01-15T09:14:29;2.50;99.90
17992;DHT22;9121;50.926;5.340;2024-01-15T09:16:57;2.50;99.90
17992;DHT22;9121;50.926;5.340;2024-01-15T09:19:24;2.40;99.90
17992;DHT22;9121;50.926;5.340;2024-01-15T09:21:51;2.40;99.90
17992;DHT22;9121;50.926;5.340;2024-01-15T09:24:18;2.40;99.90
17992;DHT22;9121;50.926;5.340;2024-01-15T09:26:45;2.50;99.90
17992;DHT22;9121;50.926;5.340;2024-01-15T09:29:12;2.40;99.90
17992;DHT22;9121;50.926;5.340;2024-01-15T09:31:41;2.50;99.90
17992;DHT22;9121;50.926;5.340;2024-01-15T09:34:09;2.60;99.90
17992;DHT22;9121;50.926;5.340;2024-01-15T09:36:39;2.50;99.90
17992;DHT22;9121;50.926;5.340;2024-01-15T09:39:07;2.50;99.90
17992;DHT22;9121;50.926;5.340;2024-01-15T09:41:35;2.50;99.90
17992;DHT22;9121;50.926;5.340;2024-01-15T09:44:03;2.60;99.90
17992;DHT22;9121;50.926;5.340;2024-01-15T09:46:31;2.60;99.90
17992;DHT22;9121;50.926;5.340;2024-01-15T09:48:58;2.80;99.90
17992;DHT22;9121;50.926;5.340;2024-01-15T09:51:28;2.80;99.90
17992;DHT22;9121;50.926;5.340;2024-01-15T09:53:57;2.80;99.90
17992;DHT22;9121;50.926;5.340;2024-01-15T09:56:24;2.90;99.90
17992;DHT22;9121;50.926;5.340;2024-01-15T09:58:52;2.90;99.90
17992;DHT22;9121;50.926;5.340;2024-01-15T10:01:20;3.00;99.90
17992;DHT22;9121;50.926;5.340;2024-01-15T10:03:47;3.10;99.90
17992;DHT22;9121;50.926;5.340;2024-01-15T10:06:15;3.10;99.90
17992;DHT22;9121;50.926;5.340;2024-01-15T10:08:48;3.10;99.90
17992;DHT22;9121;50.926;5.340;2024-01-15T10:11:15;3.00;99.90
17992;DHT22;9121;50.926;5.340;2024-01-15T10:13:43;3.10;99.90
17992;DHT22;9121;50.926;5.340;2024-01-15T10:16:10;3.10;99.90
17992;DHT22;9121;50.926;5.340;2024-01-15T10:18:37;3.20;99.90
17992;DHT22;9121;50.926;5.340;2024-01-15T10:21:06;3.20;99.90
17992;DHT22;9121;50.926;5.340;2024-01-15T10:23:34;3.20;99.90
17992;DHT22;9121;50.926;5.340;2024-01-15T10:26:03;3.20;99.90
17992;DHT22;9121;50.926;5.340;2024-01-15T10:28:31;3.30;99.90
17992;DHT22;9121;50.926;5.340;2024-01-15T10:30:58;3.40;99.90
17992;DHT22;9121;50.926;5.340;2024-01-15T10:33:26;3.30;99.90
17992;DHT22;9121;50.926;5.340;2024-01-15T10:35:54;3.40;99.90
17992;DHT22;9121;50.926;5.340;2024-01-15T10:38:22;3.40;99.90
17992;DHT22;9121;50.926;5.340;2024-01-15T10:40:52;3.50;99.90
17992;DHT22;9121;50.926;5.340;2024-01-15T10:43:21;3.50;99.90
17992;DHT22;9121;50.926;5.340;2024-01-15T10:45:50;3.50;99.90
17992;DHT22;9121;50.926;5.340;2024-01-15T10:48:18;3.50;99.90
17992;DHT22;9121;50.926;5.340;2024-01-15T10:50:46;3.50;99.90
17992;DHT22;9121;50.926;5.340;2024-01-15T10:53:15;3.50;99.90
17992;DHT22;9121;50.926;5.340;2024-01-15T10:55:43;3.60;99.90
17992;DHT22;9121;50.926;5.340;2024-01-15T10:58:10;3.70;99.90
17992;DHT22;9121;50.926;5.340;2024-01-15T11:00:38;3.80;99.90
17992;DHT22;9121;50.926;5.340;2024-01-15T11:03:06;3.80;99.90
17992;DHT22;9121;50.926;5.340;2024-01-15T11:05:34;3.90;99.90
17992;DHT22;9121;50.926;5.340;2024-01-15T11:08:05;4.00;99.90
17992;DHT22;9121;50.926;5.340;2024-01-15T11:10:40;4.10;99.90
17992;DHT22;9121;50.926;5.340;2024-01-15T11:13:09;4.10;99.90
17992;DHT22;9121;50.926;5.340;2024-01-15T11:15:55;4.30;99.90
17992;DHT22;9121;50.926;5.340;2024-01-15T11:18:22;4.50;99.90
17992;DHT22;9121;50.926;5.340;2024-01-15T11:21:19;4.60;99.90
17992;DHT22;9121;50.926;5.340;2024-01-15T11:23:48;4.80;99.90
17992;DHT22;9121;50.926;5.340;2024-01-15T11:26:28;4.70;99.90
17992;DHT22;9121;50.926;5.340;2024-01-15T11:28:55;4.60;99.90
17992;DHT22;9121;50.926;5.340;2024-01-15T11:31:28;4.50;99.90
17992;DHT22;9121;50.926;5.340;2024-01-15T11:33:55;4.40;99.90
17992;DHT22;9121;50.926;5.340;2024-01-15T11:36:22;4.30;99.90
17992;DHT22;9121;50.926;5.340;2024-01-15T11:42:12;4.30;99.90
17992;DHT22;9121;50.926;5.340;2024-01-15T11:44:40;4.20;99.90
17992;DHT22;9121;50.926;5.340;2024-01-15T11:47:09;4.10;99.90
17992;DHT22;9121;50.926;5.340;2024-01-15T11:49:59;3.90;99.90
17992;DHT22;9121;50.926;5.340;2024-01-15T11:52:33;3.70;1.00
17992;DHT22;9121;50.926;5.340;2024-01-15T11:55:17;3.20;99.90
17992;DHT22;9121;50.926;5.340;2024-01-15T11:57:48;2.70;99.90
17992;DHT22;9121;50.926;5.340;2024-01-15T12:00:17;2.60;99.90
17992;DHT22;9121;50.926;5.340;2024-01-15T12:02:46;2.60;99.90
17992;DHT22;9121;50.926;5.340;2024-01-15T12:05:15;2.50;99.90
17992;DHT22;9121;50.926;5.340;2024-01-15T12:07:42;2.50;99.90
17992;DHT22;9121;50.926;5.340;2024-01-15T12:10:10;2.50;99.90
17992;DHT22;9121;50.926;5.340;2024-01-15T12:12:58;2.60;99.90
17992;DHT22;9121;50.926;5.340;2024-01-15T12:15:29;2.60;99.90
17992;DHT22;9121;50.926;5.340;2024-01-15T12:17:58;2.50;99.90
17992;DHT22;9121;50.926;5.340;2024-01-15T12:20:26;2.40;99.90
17992;DHT22;9121;50.926;5.340;2024-01-15T12:22:53;2.50;99.90
17992;DHT22;9121;50.926;5.340;2024-01-15T12:25:21;2.50;99.90
17992;DHT22;9121;50.926;5.340;2024-01-15T12:27:48;2.60;99.90
17992;DHT22;9121;50.926;5.340;2024-01-15T12:30:15;2.70;99.90
17992;DHT22;9121;50.926;5.340;2024-01-15T12:32:42;2.50;99.90
17992;DHT22;9121;50.926;5.340;2024-01-15T12:35:11;2.30;99.90
17992;DHT22;9121;50.926;5.340;2024-01-15T12:37:39;2.20;99.90
17992;DHT22;9121;50.926;5.340;2024-01-15T12:40:08;2.20;99.90
17992;DHT22;9121;50.926;5.340;2024-01-15T12:42:35;2.20;99.90
17992;DHT22;9121;50.926;5.340;2024-01-15T12:45:02;2.20;99.90
17992;DHT22;9121;50.926;5.340;2024-01-15T12:47:30;2.30;99.90
17992;DHT22;9121;50.926;5.340;2024-01-15T12:49:57;2.40;99.90
17992;DHT22;9121;50.926;5.340;2024-01-15T12:52:28;2.40;99.90
17992;DHT22;9121;50.926;5.340;2024-01-15T12:54:55;2.50;99.90
17992;DHT22;9121;50.926;5.340;2024-01-15T12:57:22;2.50;99.90
17992;DHT22;9121;50.926;5.340;2024-01-15T12:59:49;2.60;99.90
17992;DHT22;9121;50.926;5.340;2024-01-15T13:02:17;2.70;99.90
17992;DHT22;9121;50.926;5.340;2024-01-15T13:04:44;2.60;99.90
17992;DHT22;9121;50.926;5.340;2024-01-15T13:07:11;2.60;99.90
17992;DHT22;9121;50.926;5.340;2024-01-15T13:09:40;2.60;99.90
17992;DHT22;9121;50.926;5.340;2024-01-15T13:12:07;2.70;99.90
17992;DHT22;9121;50.926;5.340;2024-01-15T13:14:34;2.70;99.90
17992;DHT22;9121;50.926;5.340;2024-01-15T13:17:02;2.60;99.90
17992;DHT22;9121;50.926;5.340;2024-01-15T13:19:29;2.50;99.90
17992;DHT22;9121;50.926;5.340;2024-01-15T13:21:58;2.40;99.90
17992;DHT22;9121;50.926;5.340;2024-01-15T13:24:25;2.40;99.90
17992;DHT22;9121;50.926;5.340;2024-01-15T13:26:54;2.50;99.90
17992;DHT22;9121;50.926;5.340;2024-01-15T13:29:22;2.50;99.90
17992;DHT22;9121;50.926;5.340;2024-01-15T13:31:49;2.60;99.90
17992;DHT22;9121;50.926;5.340;2024-01-15T13:34:16;2.60;99.90
17992;DHT22;9121;50.926;5.340;2024-01-15T13:36:43;2.60;99.90
17992;DHT22;9121;50.926;5.340;2024-01-15T13:39:10;2.70;99.90
17992;DHT22;9121;50.926;5.340;2024-01-15T13:41:37;2.70;99.90
17992;DHT22;9121;50.926;5.340;2024-01-15T13:44:05;2.80;99.90
17992;DHT22;9121;50.926;5.340;2024-01-15T13:46:32;2.80;99.90
17992;DHT22;9121;50.926;5.340;2024-01-15T13:49:01;2.70;99.90
17992;DHT22;9121;50.926;5.340;2024-01-15T13:51:30;2.80;99.90
17992;DHT22;9121;50.926;5.340;2024-01-15T13:53:57;2.90;99.90
17992;DHT22;9121;50.926;5.340;2024-01-15T13:56:24;2.80;99.90
17992;DHT22;9121;50.926;5.340;2024-01-15T13:58:51;2.80;99.90
17992;DHT22;9121;50.926;5.340;2024-01-15T14:01:20;2.80;99.90
17992;DHT22;9121;50.926;5.340;2024-01-15T14:03:46;2.90;99.90
17992;DHT22;9121;50.926;5.340;2024-01-15T14:06:13;2.80;99.90
17992;DHT22;9121;50.926;5.340;2024-01-15T14:08:40;2.80;99.90
17992;DHT22;9121;50.926;5.340;2024-01-15T14:11:07;2.70;99.90
17992;DHT22;9121;50.926;5.340;2024-01-15T14:13:35;2.60;99.90
17992;DHT22;9121;50.926;5.340;2024-01-15T14:16:03;2.60;99.90
17992;DHT22;9121;50.926;5.340;2024-01-15T14:18:32;2.50;99.90
17992;DHT22;9121;50.926;5.340;2024-01-15T14:20:59;2.60;99.90
17992;DHT22;9121;50.926;5.340;2024-01-15T14:23:26;2.70;99.90
17992;DHT22;9121;50.926;5.340;2024-01-15T14:25:53;2.70;99.90
17992;DHT22;9121;50.926;5.340;2024-01-15T14:28:20;2.80;99.90
17992;DHT22;9121;50.926;5.340;2024-01-15T14:30:47;2.80;99.90
17992;DHT22;9121;50.926;5.340;2024-01-15T14:33:13;2.70;99.90
17992;DHT22;9121;50.926;5.340;2024-01-15T14:35:42;2.70;99.90
17992;DHT22;9121;50.926;5.340;2024-01-15T14:38:09;2.70;99.90
17992;DHT22;9121;50.926;5.340;2024-01-15T14:40:36;2.70;99.90
17992;DHT22;9121;50.926;5.340;2024-01-15T14:43:03;2.70;99.90
17992;DHT22;9121;50.926;5.340;2024-01-15T14:45:30;2.60;99.90
17992;DHT22;9121;50.926;5.340;2024-01-15T14:47:57;2.50;99.90
17992;DHT22;9121;50.926;5.340;2024-01-15T14:50:24;2.50;99.90
17992;DHT22;9121;50.926;5.340;2024-01-15T14:52:53;2.50;99.90
17992;DHT22;9121;50.926;5.340;2024-01-15T14:55:20;2.40;99.90
17992;DHT22;9121;50.926;5.340;2024-01-15T14:57:48;2.40;99.90
17992;DHT22;9121;50.926;5.340;2024-01-15T15:00:16;2.40;99.90
17992;DHT22;9121;50.926;5.340;2024-01-15T15:02:43;2.40;99.90
17992;DHT22;9121;50.926;5.340;2024-01-15T15:05:10;2.40;99.90
17992;DHT22;9121;50.926;5.340;2024-01-15T15:07:39;2.40;99.90
17992;DHT22;9121;50.926;5.340;2024-01-15T15:10:08;2.40;99.90
17992;DHT22;9121;50.926;5.340;2024-01-15T15:12:36;2.50;99.90
17992;DHT22;9121;50.926;5.340;2024-01-15T15:15:04;2.50;99.90
17992;DHT22;9121;50.926;5.340;2024-01-15T15:17:30;2.50;99.90
17992;DHT22;9121;50.926;5.340;2024-01-15T15:19:58;2.60;99.90
17992;DHT22;9121;50.926;5.340;2024-01-15T15:22:24;2.60;99.90
17992;DHT22;9121;50.926;5.340;2024-01-15T15:24:52;2.70;99.90
17992;DHT22;9121;50.926;5.340;2024-01-15T15:27:21;2.70;99.90
17992;DHT22;9121;50.926;5.340;2024-01-15T15:29:48;2.60;99.90
17992;DHT22;9121;50.926;5.340;2024-01-15T15:32:16;2.60;99.90
17992;DHT22;9121;50.926;5.340;2024-01-15T15:34:43;2.60;99.90
17992;DHT22;9121;50.926;5.340;2024-01-15T15:37:10;2.60;99.90
17992;DHT22;9121;50.926;5.340;2024-01-15T15:39:36;2.60;99.90
17992;DHT22;9121;50.926;5.340;2024-01-15T15:42:04;2.50;99.90
17992;DHT22;9121;50.926;5.340;2024-01-15T15:44:33;2.50;99.90
17992;DHT22;9121;50.926;5.340;2024-01-15T15:46:59;2.40;99.90
17992;DHT22;9121;50.926;5.340;2024-01-15T15:49:26;2.40;99.90
17992;DHT22;9121;50.926;5.340;2024-01-15T15:51:53;2.30;99.90
17992;DHT22;9121;50.926;5.340;2024-01-15T15:54:20;2.20;99.90
17992;DHT22;9121;50.926;5.340;2024-01-15T15:56:47;2.20;99.90
17992;DHT22;9121;50.926;5.340;2024-01-15T15:59:16;2.20;99.90
17992;DHT22;9121;50.926;5.340;2024-01-15T16:01:46;2.20;99.90
17992;DHT22;9121;50.926;5.340;2024-01-15T16:04:13;2.30;99.90
17992;DHT22;9121;50.926;5.340;2024-01-15T16:06:40;2.20;99.90
17992;DHT22;9121;50.926;5.340;2024-01-15T16:09:08;2.20;99.90